x

South Georgian Bay (45143) Wave Buoy

3:00am - Wed 31st Aug 2016 All times are CDT. -5 hours from GMT.

  • Sig Wave height 1.6ft
  • Peak Period 3s
  • Wind
    16mph, 18mph gusts
  • Sea Temp 71°f
  • Air Temp 70°f
  • Sea Pressure 1013.8mb
  • South Georgian Bay
  • South Georgian Bay

More Historic Weather Station data

Upgrade to MSW Pro to gain access to the past 30 days of data for over 8000 Wavebouys and Weather Stations around the globe.

Join Pro

Comparision Forecast

View Surf forecast
   
Wed 08/31 3:00am 1.6ft 3s 16 18 mph 1013.8mb 71f 70f
2:00am 1.6ft 3s 13 16 mph 1014.1mb 71f 71f
1:00am 1.6ft 3s 13 18 mph 1014.3mb 71f 71f
12:00am 1.3ft 2s 11 16 mph 1014.6mb 71f 71f
Tue 08/30 11:00pm 1.3ft 3s 11 13 mph 1014.6mb 71f 72f
10:00pm 1ft 3s 11 13 mph 1014.8mb 71f 72f
9:00pm 0.7ft 2s 4 11 mph 1015.4mb 71f 73f
8:00pm 1ft 2s 4
mph
1015.6mb 71f 73f
7:00pm 1ft 3s 4 7 mph 1015.2mb 71f 73f
6:00pm 1.3ft 3s 9
mph
1015.3mb 71f 73f
5:00pm 1.6ft 4s 13 18 mph 1015.5mb 71f 74f
4:00pm 2ft 3s 13
mph
1015.9mb 71f 73f
3:00pm 2ft 4s 16 18 mph 1016mb 71f 73f
2:00pm 2.5ft 4s 18 20 mph 1016.4mb 71f 75f
1:00pm 2ft 3s 18 20 mph 1017.1mb 71f 75f
12:00pm 2ft 4s 7 11 mph 1017.4mb 71f 74f
11:00am 2ft 4s 16 18 mph 1017.6mb 71f 72f
10:00am 2ft 4s 13 18 mph 1018.3mb 71f 71f
9:00am 2ft 3s 16 18 mph 1019mb 71f 71f
8:00am 1.6ft 3s 16 18 mph 1019.4mb 71f 69f
7:00am 1.6ft 3s 18 20 mph 1019.5mb 71f 69f
6:00am 1.3ft 3s 13 16 mph 1019.8mb 71f 69f
5:00am 1.3ft 3s 13
mph
1020.3mb 71f 69f
4:00am 1ft 2s 13 16 mph 1020.7mb 71f 69f
3:00am 0.7ft 2s 11 13 mph 1021mb 71f 68f
2:00am 0.3ft 2s 9 11 mph 1021.5mb 71f 70f
1:00am 0.3ft 2s 7 9 mph 1021.5mb 71f 70f
12:00am 0.3ft 2s 4 7 mph 1021.8mb 71f 70f
Mon 08/29 11:00pm 0.3ft 2s 7 9 mph 1022.1mb 71f 70f
10:00pm 0.3ft 2s 4
mph
1022.3mb 71f 70f
9:00pm 0.3ft 2s 4
mph
1022.8mb 71f 70f
8:00pm 0.3ft 2s 2 4 mph 1023mb 71f 70f
7:00pm 0.3ft 2s 4 7 mph 1023mb 72f 70f
6:00pm 0.3ft 3s 4 7 mph 1023.1mb 72f 70f
5:00pm 0.7ft 3s 4
mph
1023.5mb 73f 69f
4:00pm 0.7ft 3s 4
mph
1023.8mb 73f 69f
3:00pm 0.7ft 4s 4
mph
1024.4mb 73f 69f
2:00pm 1ft 4s 2 4 mph 1024.8mb 73f 69f
1:00pm 1.3ft 3s 4 7 mph 1025.4mb 73f 68f
12:00pm 1.3ft 4s 4
mph
1025.8mb 72f 68f
11:00am 1.3ft 4s 2 4 mph 1026.2mb 72f 67f
10:00am 1.6ft 4s 7 9 mph 1026.2mb 71f 67f
9:00am 1.6ft 4s 9 11 mph 1026mb 71f 67f
8:00am 1.6ft 4s 11 13 mph 1025.4mb 71f 67f
7:00am 1.6ft 4s 11 13 mph 1025.1mb 71f 67f
6:00am 2ft 4s 11 13 mph 1024.4mb 71f 68f
5:00am 2ft 4s 13
mph
1024.1mb 71f 68f
4:00am 2ft 4s 13 16 mph 1023.7mb 71f 69f
3:00am 2ft 4s 13 16 mph 1023mb 71f 70f
2:00am 2.5ft 4s 13 16 mph 1023mb 71f 70f
1:00am 2.5ft 4s 13 18 mph 1022.6mb 71f 70f
12:00am 2.5ft 4s 16 18 mph 1022.5mb 71f 70f
Sun 08/28 11:00pm 2.5ft 4s 16 20 mph 1022.2mb 71f 70f
10:00pm 2.5ft 4s 16 18 mph 1022.1mb 71f 70f
9:00pm 2ft 4s 16 18 mph 1022.1mb 71f 70f
8:00pm 2.5ft 4s 13 18 mph 1021.5mb 71f 70f
7:00pm 2.5ft 4s 18 20 mph 1020.8mb 71f 71f
6:00pm 2.5ft 4s 16 18 mph 1020.4mb 71f 71f
5:00pm 2.5ft 4s 13 18 mph 1020.9mb 71f 71f
4:00pm 3ft 5s 16 18 mph 1020.8mb 71f 71f
3:00pm 3ft 4s 18 22 mph 1020.5mb 71f 71f
2:00pm 2.5ft 4s 18 22 mph 1020.6mb 71f 71f
1:00pm 1.6ft 3s 16 18 mph 1021mb 71f 71f
12:00pm 1.3ft 3s 16 18 mph 1020.6mb 71f 71f
11:00am 1ft 3s 13 16 mph 1020.3mb 71f 71f
10:00am 1.3ft 3s 9 11 mph 1020mb 71f 71f
9:00am 1.6ft 3s 13
mph
1019.7mb 71f 71f
8:00am 1.6ft 3s 13 16 mph 1019.4mb 71f 71f
7:00am 1.6ft 3s 16 18 mph 1019.3mb 71f 70f
6:00am 1.6ft 3s 13 18 mph 1019mb 71f 70f
5:00am 1.6ft 3s 16 18 mph 1019.2mb 71f 70f
4:00am 2ft 3s 13 16 mph 1018.8mb 71f 71f
3:00am 1.3ft 3s 18 22 mph 1018.6mb 71f 71f
2:00am 1.3ft 3s 13 16 mph 1018.8mb 71f 72f
1:00am 1.6ft 3s 11 13 mph 1018.8mb 71f 73f
12:00am 2ft 3s 13 16 mph 1019.1mb 71f 73f
Sat 08/27 11:00pm 2ft 3s 16 20 mph 1019.1mb 71f 73f
10:00pm 1.6ft 3s 13 16 mph 1019.3mb 71f 73f
9:00pm 1.6ft 3s 11 13 mph 1019.5mb 71f 72f
8:00pm 1.6ft 3s 16 18 mph 1019.4mb 71f 72f
7:00pm 1.6ft 3s 16 18 mph 1019.6mb 71f 72f
6:00pm 1ft 2s 16 18 mph 1020.2mb 71f 71f
5:00pm 0.7ft 2s 13 16 mph 1020.7mb 71f 71f
4:00pm 0.7ft 3s 9 11 mph 1021.2mb 71f 71f
3:00pm 0.7ft 3s 7
mph
1021.6mb 71f 71f
2:00pm 0.7ft 3s 4 7 mph 1021.8mb 71f 71f
1:00pm 0.7ft 3s 7 9 mph 1021.9mb 71f 71f
12:00pm 0.7ft 2s 9
mph
1022.1mb 72f 70f
11:00am 0.7ft 2s 9
mph
1022.6mb 72f 70f
10:00am 0.7ft 2s 9
mph
1022.8mb 71f 70f